Time;durP1;ratioP1;P1;durP2;ratioP2;P2;SDS_P1;SDS_P2;PMS_P1;PMS_P2;Temp;Humidity;BMP_temperature;BMP_pressure;BME280_temperature;BME280_humidity;BME280_pressure;Samples;Min_cycle;Max_cycle;Signal;HPM_P1;HPM_P2
2020/12/11 00:01:58;;;;;;;46.60;23.83;;;-0.10;99.90;;;;;;4200265;28;20028;-81
2020/12/11 00:04:00;;;;;;;49.25;24.95;;;-0.10;99.90;;;;;;4180163;28;20017;-81
2020/12/11 00:06:00;;;;;;;51.75;24.60;;;-0.10;99.90;;;;;;4180428;28;20055;-81
2020/12/11 00:08:01;;;;;;;51.38;25.63;;;-0.10;99.90;;;;;;4213029;28;20043;-80
2020/12/11 00:10:06;;;;;;;51.47;25.60;;;0.00;99.90;;;;;;4212979;28;20353;-80
2020/12/11 00:12:08;;;;;;;48.05;23.85;;;0.00;99.90;;;;;;4212834;28;20024;-81
2020/12/11 00:14:08;;;;;;;46.05;23.85;;;0.00;99.90;;;;;;4213115;28;20039;-81
2020/12/11 00:16:09;;;;;;;52.22;25.88;;;0.00;99.90;;;;;;4195127;28;20073;-80
2020/12/11 00:18:10;;;;;;;50.10;25.52;;;0.00;99.90;;;;;;4212812;28;20030;-80
2020/12/11 00:20:10;;;;;;;43.78;23.25;;;0.00;99.90;;;;;;4212775;28;20099;-81
2020/12/11 00:22:14;;;;;;;44.65;24.17;;;0.00;99.90;;;;;;4213005;28;20360;-81
2020/12/11 00:24:15;;;;;;;50.92;27.08;;;0.00;99.90;;;;;;4213043;28;20157;-81
2020/12/11 00:26:16;;;;;;;48.42;25.90;;;0.00;99.90;;;;;;4194970;28;20120;-80
2020/12/11 00:28:16;;;;;;;49.42;26.42;;;0.00;99.90;;;;;;4194825;28;20074;-80
2020/12/11 00:30:17;;;;;;;49.03;25.13;;;0.00;99.90;;;;;;4194987;28;20029;-81
2020/12/11 00:32:18;;;;;;;41.35;23.77;;;0.10;99.90;;;;;;4212505;28;20130;-80
2020/12/11 00:34:18;;;;;;;49.70;24.70;;;0.00;99.90;;;;;;4211820;28;20487;-80
2020/12/11 00:36:19;;;;;;;44.00;23.58;;;0.00;99.90;;;;;;4194808;28;20083;-81
2020/12/11 00:38:20;;;;;;;50.03;25.27;;;0.00;99.90;;;;;;4212699;28;20028;-81
2020/12/11 00:40:21;;;;;;;44.38;22.00;;;0.00;99.90;;;;;;4212674;28;20036;-81
2020/12/11 00:42:21;;;;;;;48.67;24.73;;;0.00;99.90;;;;;;4212412;28;20653;-81
2020/12/11 00:44:22;;;;;;;41.08;23.67;;;-0.10;99.90;;;;;;4212962;28;20031;-80
2020/12/11 00:46:24;;;;;;;47.40;23.70;;;-0.10;99.90;;;;;;4194870;28;20021;-80
2020/12/11 00:48:25;;;;;;;47.00;26.63;;;-0.10;99.90;;;;;;4194854;28;20526;-80
2020/12/11 00:50:26;;;;;;;49.30;25.48;;;-0.10;99.90;;;;;;4194757;28;20041;-80
2020/12/11 00:52:26;;;;;;;49.42;24.65;;;-0.10;99.90;;;;;;4212540;28;20028;-81
2020/12/11 00:54:27;;;;;;;49.70;25.63;;;-0.10;99.90;;;;;;4212591;28;20070;-81
2020/12/11 00:56:27;;;;;;;42.40;24.08;;;-0.10;99.90;;;;;;4212303;28;20032;-81
2020/12/11 00:58:28;;;;;;;45.50;25.23;;;-0.20;99.90;;;;;;4212734;28;20039;-81
2020/12/11 01:00:28;;;;;;;48.80;25.92;;;-0.20;99.90;;;;;;4212734;28;20443;-81
2020/12/11 01:02:29;;;;;;;42.05;25.20;;;-0.20;99.90;;;;;;4212887;28;20070;-81
2020/12/11 01:04:30;;;;;;;44.47;24.63;;;-0.10;99.90;;;;;;4212702;28;20054;-81
2020/12/11 01:06:31;;;;;;;45.90;24.23;;;-0.20;99.90;;;;;;4212660;28;20115;-81
2020/12/11 01:08:31;;;;;;;52.95;24.02;;;-0.20;99.90;;;;;;4194687;28;20029;-81
2020/12/11 01:10:33;;;;;;;48.72;26.25;;;-0.20;99.90;;;;;;4194584;28;20067;-81
2020/12/11 01:12:34;;;;;;;42.95;24.15;;;-0.20;99.90;;;;;;4194751;28;20029;-81
2020/12/11 01:14:35;;;;;;;45.40;24.50;;;-0.20;99.90;;;;;;4212740;28;20030;-81
2020/12/11 01:16:35;;;;;;;47.47;26.42;;;-0.20;99.90;;;;;;4194920;28;20448;-81
2020/12/11 01:18:36;;;;;;;46.33;25.20;;;-0.20;99.90;;;;;;4212358;28;20031;-82
2020/12/11 01:20:37;;;;;;;47.97;25.35;;;-0.30;99.90;;;;;;4194782;28;20086;-82
2020/12/11 01:22:37;;;;;;;41.25;24.45;;;-0.30;99.90;;;;;;4194671;28;20471;-81
2020/12/11 01:24:38;;;;;;;47.05;24.60;;;-0.30;99.90;;;;;;4202522;28;20391;-81
2020/12/11 01:26:44;;;;;;;49.40;24.73;;;-0.30;99.90;;;;;;4194725;28;20104;-81
2020/12/11 01:28:45;;;;;;;42.50;23.88;;;-0.30;99.90;;;;;;4206190;28;20162;-81
2020/12/11 01:30:46;;;;;;;45.22;25.30;;;-0.30;99.90;;;;;;4203013;28;20490;-81
2020/12/11 01:32:47;;;;;;;45.95;25.58;;;-0.30;99.90;;;;;;4202372;28;20035;-81
2020/12/11 01:34:48;;;;;;;46.33;24.65;;;-0.30;99.90;;;;;;4195618;28;20475;-81
2020/12/11 01:36:49;;;;;;;45.05;24.70;;;-0.30;99.90;;;;;;4203559;28;20108;-81
2020/12/11 01:38:49;;;;;;;46.47;24.13;;;-0.30;99.90;;;;;;4205088;28;20107;-81
2020/12/11 01:40:51;;;;;;;47.20;25.02;;;-0.30;99.90;;;;;;4197429;28;20028;-81
2020/12/11 01:42:51;;;;;;;47.17;25.77;;;-0.30;99.90;;;;;;4200234;28;20045;-81
2020/12/11 01:44:53;;;;;;;45.75;25.35;;;-0.30;99.90;;;;;;4197554;28;20024;-81
2020/12/11 01:46:57;;;;;;;49.10;26.58;;;-0.30;99.90;;;;;;4196897;28;20028;-81
2020/12/11 01:48:57;;;;;;;45.58;24.27;;;-0.30;99.90;;;;;;4215437;28;20450;-81
2020/12/11 01:50:59;;;;;;;46.42;26.30;;;-0.30;99.90;;;;;;4209675;28;20041;-81
2020/12/11 01:53:00;;;;;;;47.35;25.15;;;-0.30;99.90;;;;;;4182228;28;20120;-81
2020/12/11 01:55:00;;;;;;;46.17;24.90;;;-0.30;99.90;;;;;;4201766;28;20468;-81
2020/12/11 01:57:06;;;;;;;51.10;27.02;;;-0.30;99.90;;;;;;4208611;28;20040;-78
2020/12/11 01:59:12;;;;;;;46.33;25.17;;;-0.30;99.90;;;;;;4190165;28;20491;-80
2020/12/11 02:01:16;;;;;;;44.40;25.02;;;-0.40;99.90;;;;;;4213057;28;20047;-81
2020/12/11 02:03:17;;;;;;;50.15;24.60;;;-0.40;99.90;;;;;;4195772;28;20110;-81
2020/12/11 02:05:18;;;;;;;47.28;24.42;;;-0.40;99.90;;;;;;4215083;28;20475;-81
2020/12/11 02:07:20;;;;;;;43.38;24.40;;;-0.50;99.90;;;;;;4208726;28;20128;-81
2020/12/11 02:09:22;;;;;;;49.10;28.52;;;-0.40;99.90;;;;;;4189416;28;20071;-81
2020/12/11 02:11:24;;;;;;;42.03;22.63;;;-0.40;99.90;;;;;;4196842;28;20033;-81
2020/12/11 02:13:25;;;;;;;52.92;27.83;;;-0.40;99.90;;;;;;4196994;28;20115;-81
2020/12/11 02:15:26;;;;;;;53.67;25.88;;;-0.40;99.90;;;;;;4214998;28;20475;-81
2020/12/11 02:17:27;;;;;;;51.25;26.52;;;-0.40;99.90;;;;;;4214777;28;20043;-81
2020/12/11 02:19:32;;;;;;;50.63;26.25;;;-0.40;99.90;;;;;;4214966;28;20082;-81
2020/12/11 02:21:33;;;;;;;57.35;27.65;;;-0.40;99.90;;;;;;4214773;28;20119;-81
2020/12/11 02:23:34;;;;;;;42.72;23.70;;;-0.40;99.90;;;;;;4196456;28;20036;-80
2020/12/11 02:25:34;;;;;;;42.92;25.45;;;-0.50;99.90;;;;;;4214711;28;20040;-81
2020/12/11 02:27:37;;;;;;;48.92;24.30;;;-0.50;99.90;;;;;;4214550;28;20040;-81
2020/12/11 02:29:38;;;;;;;49.15;25.33;;;-0.50;99.90;;;;;;4196842;28;20048;-81
2020/12/11 02:31:39;;;;;;;48.85;27.23;;;-0.50;99.90;;;;;;4214153;28;20128;-80
2020/12/11 02:33:40;;;;;;;49.30;25.35;;;-0.60;99.90;;;;;;4214632;28;20031;-81
2020/12/11 02:35:41;;;;;;;44.75;25.00;;;-0.70;99.90;;;;;;4196156;28;20166;-82
2020/12/11 02:37:42;;;;;;;45.50;24.02;;;-0.80;99.90;;;;;;4206697;28;20631;-82
2020/12/11 02:39:43;;;;;;;54.05;27.98;;;-0.70;99.90;;;;;;4203925;28;20036;-81
2020/12/11 02:41:47;;;;;;;47.08;25.40;;;-0.70;99.90;;;;;;4196245;28;20055;-82
2020/12/11 02:43:48;;;;;;;50.53;26.27;;;-0.70;99.90;;;;;;4202393;28;20038;-81
2020/12/11 02:45:50;;;;;;;49.25;26.30;;;-0.70;99.90;;;;;;4212153;28;20036;-82
2020/12/11 02:47:51;;;;;;;50.55;25.02;;;-0.70;99.90;;;;;;4214604;28;20024;-82
2020/12/11 02:49:52;;;;;;;55.60;27.60;;;-0.70;99.90;;;;;;4195465;28;20086;-82
2020/12/11 02:51:52;;;;;;;49.72;26.30;;;-0.70;99.90;;;;;;4214075;28;20025;-81
2020/12/11 02:53:53;;;;;;;51.45;25.80;;;-0.70;99.90;;;;;;4196362;28;20032;-81
2020/12/11 02:55:57;;;;;;;50.05;25.48;;;-0.70;99.90;;;;;;4214198;28;20024;-81
2020/12/11 02:57:57;;;;;;;50.53;28.30;;;-0.70;99.90;;;;;;4214033;28;20024;-82
2020/12/11 02:59:58;;;;;;;45.53;26.15;;;-0.80;99.90;;;;;;4214223;28;20566;-82
2020/12/11 03:01:58;;;;;;;53.90;27.75;;;-0.80;99.90;;;;;;4206759;28;20370;-81
2020/12/11 03:03:59;;;;;;;55.25;27.85;;;-0.80;99.90;;;;;;4196275;28;20112;-81
2020/12/11 03:06:00;;;;;;;49.53;25.27;;;-0.70;99.90;;;;;;4210198;28;20422;-81
2020/12/11 03:08:00;;;;;;;54.58;26.30;;;-0.70;99.90;;;;;;4213684;28;20020;-81
2020/12/11 03:10:02;;;;;;;52.25;26.67;;;-0.70;99.90;;;;;;4213689;28;20414;-79
2020/12/11 03:12:02;;;;;;;52.72;27.73;;;-0.70;99.90;;;;;;4196075;28;20021;-80
2020/12/11 03:14:03;;;;;;;50.50;26.73;;;-0.70;99.90;;;;;;4214009;28;20365;-81
2020/12/11 03:16:04;;;;;;;52.65;26.75;;;-0.70;99.90;;;;;;4195728;28;20531;-81
2020/12/11 03:18:04;;;;;;;51.78;26.08;;;-0.80;99.90;;;;;;4213865;28;20020;-81
2020/12/11 03:20:05;;;;;;;53.97;25.85;;;-0.70;99.90;;;;;;4211226;28;20024;-80
2020/12/11 03:22:05;;;;;;;52.90;26.85;;;-0.70;99.90;;;;;;4184047;28;20032;-81
2020/12/11 03:24:06;;;;;;;53.90;27.50;;;-0.70;99.90;;;;;;4213610;28;20387;-80
2020/12/11 03:26:07;;;;;;;55.13;27.38;;;-0.70;99.90;;;;;;4196009;28;20021;-81
2020/12/11 03:28:07;;;;;;;51.72;26.80;;;-0.70;99.90;;;;;;4213723;28;20383;-81
2020/12/11 03:30:08;;;;;;;57.38;28.60;;;-0.70;99.90;;;;;;4212171;28;20020;-81
2020/12/11 03:32:09;;;;;;;62.55;27.05;;;-0.70;99.90;;;;;;4197230;28;20025;-81
2020/12/11 03:34:09;;;;;;;54.75;29.17;;;-0.60;99.90;;;;;;4195264;28;20369;-81
2020/12/11 03:36:10;;;;;;;50.97;27.90;;;-0.70;99.90;;;;;;4190569;28;20562;-81
2020/12/11 03:38:10;;;;;;;51.25;25.13;;;-0.70;99.90;;;;;;4208286;28;20103;-81
2020/12/11 03:40:11;;;;;;;50.83;25.70;;;-0.70;99.90;;;;;;4203451;28;20028;-81
2020/12/11 03:42:12;;;;;;;45.85;24.80;;;-0.70;99.90;;;;;;4209315;28;20044;-81
2020/12/11 03:44:12;;;;;;;47.22;23.90;;;-0.70;99.90;;;;;;4198100;28;20119;-81
2020/12/11 03:46:22;;;;;;;54.67;28.55;;;-0.70;99.90;;;;;;4198245;28;20488;-81
2020/12/11 03:48:23;;;;;;;52.90;27.98;;;-0.60;99.90;;;;;;4213349;28;20493;-81
2020/12/11 03:50:23;;;;;;;55.10;26.52;;;-0.60;99.90;;;;;;4205741;28;20036;-81
2020/12/11 03:52:30;;;;;;;59.17;28.60;;;-0.60;99.90;;;;;;4200693;28;20025;-81
2020/12/11 03:54:31;;;;;;;50.67;26.70;;;-0.70;99.90;;;;;;4209301;28;20169;-81
2020/12/11 03:56:31;;;;;;;52.08;26.85;;;-0.70;99.90;;;;;;4201267;28;20054;-81
2020/12/11 03:58:32;;;;;;;52.72;27.38;;;-0.70;99.90;;;;;;4213256;28;20028;-81
2020/12/11 04:00:32;;;;;;;48.53;27.98;;;-0.70;99.90;;;;;;4203725;28;20485;-81
2020/12/11 04:02:34;;;;;;;52.60;27.00;;;-0.60;99.90;;;;;;4206346;28;20032;-81
2020/12/11 04:04:35;;;;;;;56.85;26.63;;;-0.60;99.90;;;;;;4213190;28;20031;-81
2020/12/11 04:06:36;;;;;;;50.47;26.65;;;-0.50;99.90;;;;;;4213007;28;20123;-81
2020/12/11 04:08:38;;;;;;;48.38;25.23;;;-0.60;99.90;;;;;;4213489;28;20111;-81
2020/12/11 04:10:38;;;;;;;49.60;25.42;;;-0.60;99.90;;;;;;4213280;28;20062;-81
2020/12/11 04:12:39;;;;;;;49.47;24.90;;;-0.70;99.90;;;;;;4213090;28;20028;-81
2020/12/11 04:14:40;;;;;;;47.35;25.60;;;-0.60;99.90;;;;;;4213060;28;20039;-81
2020/12/11 04:16:40;;;;;;;50.22;25.95;;;-0.60;99.90;;;;;;4212989;28;20432;-81
2020/12/11 04:18:43;;;;;;;49.08;25.08;;;-0.50;99.90;;;;;;4212907;28;20051;-80
2020/12/11 04:20:44;;;;;;;48.35;24.42;;;-0.50;99.90;;;;;;4212855;28;20360;-81
2020/12/11 04:22:45;;;;;;;45.55;25.10;;;-0.50;99.90;;;;;;4195097;28;20076;-81
2020/12/11 04:24:45;;;;;;;44.53;23.73;;;-0.30;99.90;;;;;;4213065;28;20425;-81
2020/12/11 04:26:46;;;;;;;45.88;25.88;;;-0.30;99.90;;;;;;4213021;28;20067;-81
2020/12/11 04:28:46;;;;;;;43.13;25.42;;;-0.20;99.90;;;;;;4195082;28;20357;-81
2020/12/11 04:30:47;;;;;;;46.00;25.27;;;-0.20;99.90;;;;;;4212722;28;20059;-81
2020/12/11 04:32:47;;;;;;;51.42;26.90;;;-0.10;99.90;;;;;;4207284;28;20109;-81
2020/12/11 04:34:48;;;;;;;47.13;25.77;;;-0.10;99.90;;;;;;4204146;28;20024;-81
2020/12/11 04:36:50;;;;;;;41.15;27.25;;;0.00;99.90;;;;;;4195258;28;20381;-81
2020/12/11 04:38:51;;;;;;;42.70;24.70;;;0.00;99.90;;;;;;4181906;28;20098;-80
2020/12/11 04:41:00;;;;;;;41.60;24.52;;;0.00;99.90;;;;;;4193745;28;20158;-81
2020/12/11 04:43:03;;;;;;;41.60;23.65;;;0.00;99.90;;;;;;4212631;28;20044;-80
2020/12/11 04:45:03;;;;;;;43.67;24.25;;;-0.10;99.90;;;;;;4194416;28;20151;-80
2020/12/11 04:47:06;;;;;;;43.83;22.85;;;-0.10;99.90;;;;;;4212976;28;20045;-81
2020/12/11 04:49:07;;;;;;;40.00;22.95;;;-0.10;99.90;;;;;;4212775;28;20496;-80
2020/12/11 04:51:08;;;;;;;44.65;25.48;;;-0.20;99.90;;;;;;4194324;28;20166;-81
2020/12/11 04:53:14;;;;;;;42.92;24.80;;;-0.20;99.90;;;;;;4212869;28;20032;-81
2020/12/11 04:55:20;;;;;;;42.97;23.92;;;-0.10;99.90;;;;;;4212941;28;20035;-81
2020/12/11 04:57:26;;;;;;;46.20;25.35;;;-0.20;99.90;;;;;;4213031;28;20361;-81
2020/12/11 04:59:26;;;;;;;42.42;22.75;;;-0.10;99.90;;;;;;4212557;28;20028;-81
2020/12/11 05:01:33;;;;;;;42.75;24.10;;;-0.10;99.90;;;;;;4194691;28;20032;-81
2020/12/11 05:03:35;;;;;;;41.65;24.02;;;-0.20;99.90;;;;;;4212561;28;20028;-81
2020/12/11 05:05:36;;;;;;;39.67;23.88;;;-0.20;99.90;;;;;;4194840;28;20056;-81
2020/12/11 05:07:37;;;;;;;39.53;22.10;;;-0.20;99.90;;;;;;4194564;28;20036;-81
2020/12/11 05:09:39;;;;;;;42.97;23.77;;;-0.20;99.90;;;;;;4208843;28;20415;-80
2020/12/11 05:11:41;;;;;;;43.00;24.45;;;-0.20;99.90;;;;;;4212751;28;20032;-81
2020/12/11 05:13:42;;;;;;;40.35;24.13;;;-0.20;99.90;;;;;;4213904;28;20035;-81
2020/12/11 05:15:42;;;;;;;43.53;26.92;;;-0.20;99.90;;;;;;4215990;28;20036;-82
2020/12/11 05:17:43;;;;;;;45.00;24.35;;;-0.10;99.90;;;;;;4214519;28;20056;-81
2020/12/11 05:19:51;;;;;;;41.25;24.38;;;-0.10;99.90;;;;;;4215681;28;20043;-81
2020/12/11 05:21:52;;;;;;;47.70;24.95;;;-0.10;99.90;;;;;;4197875;28;20036;-81
2020/12/11 05:24:01;;;;;;;40.47;24.20;;;-0.10;99.90;;;;;;4197635;28;20032;-81
2020/12/11 05:26:18;;;;;;;38.17;22.30;;;0.00;99.90;;;;;;4180846;28;20029;-79
2020/12/11 05:28:19;;;;;;;45.03;23.60;;;0.00;99.90;;;;;;4213155;28;20024;-81
2020/12/11 05:30:22;;;;;;;42.20;26.40;;;0.10;99.90;;;;;;4212768;28;20085;-81
2020/12/11 05:32:45;;;;;;;39.40;23.45;;;0.10;99.90;;;;;;4202592;28;20353;-81
2020/12/11 05:34:46;;;;;;;41.08;24.48;;;0.20;99.90;;;;;;4206143;28;20054;-81
2020/12/11 05:36:48;;;;;;;41.80;25.20;;;0.30;99.90;;;;;;4215508;28;20333;-82
2020/12/11 05:38:48;;;;;;;40.45;25.45;;;0.30;99.90;;;;;;4193619;28;20017;-81
2020/12/11 05:40:49;;;;;;;35.95;21.88;;;0.30;99.90;;;;;;4197024;28;20028;-82
2020/12/11 05:43:21;;;;;;;40.78;25.88;;;0.40;99.90;;;;;;4197364;28;20515;-82
2020/12/11 05:45:22;;;;;;;39.85;21.92;;;0.40;99.90;;;;;;4207650;28;20024;-82
2020/12/11 05:47:25;;;;;;;39.53;23.13;;;0.50;99.90;;;;;;4197415;28;20032;-81
2020/12/11 05:49:30;;;;;;;37.50;23.70;;;0.50;99.90;;;;;;4215126;28;20020;-81
2020/12/11 05:51:35;;;;;;;35.45;21.27;;;0.50;99.90;;;;;;4197307;28;20036;-81
2020/12/11 05:53:36;;;;;;;39.00;22.67;;;0.50;99.90;;;;;;4207084;28;20052;-81
2020/12/11 05:55:37;;;;;;;39.42;24.63;;;0.60;99.90;;;;;;4191849;28;20063;-80
2020/12/11 05:57:40;;;;;;;33.05;21.73;;;0.60;99.90;;;;;;4197177;28;20029;-80
2020/12/11 05:59:43;;;;;;;34.50;20.95;;;0.60;99.90;;;;;;4208978;28;20391;-81
2020/12/11 06:01:45;;;;;;;34.47;21.80;;;0.70;99.90;;;;;;4214160;28;20032;-80
2020/12/11 06:03:46;;;;;;;35.30;22.50;;;0.70;99.90;;;;;;4210705;28;20060;-81
2020/12/11 06:05:48;;;;;;;32.88;21.42;;;0.70;99.90;;;;;;4196414;28;20029;-80
2020/12/11 06:07:50;;;;;;;34.78;19.75;;;0.70;99.90;;;;;;4196136;28;20146;-81
2020/12/11 06:09:51;;;;;;;32.47;22.05;;;0.70;99.90;;;;;;4187646;28;20037;-81
2020/12/11 06:11:57;;;;;;;35.60;20.10;;;0.80;99.90;;;;;;4193716;28;20033;-81
2020/12/11 06:14:02;;;;;;;31.38;20.15;;;0.80;99.90;;;;;;4209478;28;20571;-80
2020/12/11 06:16:05;;;;;;;33.95;22.48;;;0.80;99.90;;;;;;4214405;28;20040;-80
2020/12/11 06:18:22;;;;;;;31.17;21.42;;;0.80;99.90;;;;;;4214728;28;20039;-80
2020/12/11 06:20:23;;;;;;;39.55;23.35;;;0.90;99.90;;;;;;4201991;28;20098;-81
2020/12/11 06:22:24;;;;;;;30.77;21.05;;;0.90;99.90;;;;;;4213726;28;20498;-80
2020/12/11 06:24:32;;;;;;;31.27;20.08;;;0.90;99.90;;;;;;4214124;28;20032;-80
2020/12/11 06:26:32;;;;;;;32.00;20.65;;;0.90;99.90;;;;;;4213889;28;20108;-80
2020/12/11 06:28:37;;;;;;;33.47;20.60;;;1.00;99.90;;;;;;4200024;28;20063;-80
2020/12/11 06:30:38;;;;;;;31.52;18.88;;;1.00;99.90;;;;;;4197750;28;20036;-80
2020/12/11 06:32:38;;;;;;;32.53;21.50;;;1.00;99.90;;;;;;4212746;28;20077;-82
2020/12/11 06:34:39;;;;;;;32.88;21.42;;;1.00;99.90;;;;;;4196499;28;20039;-79
2020/12/11 06:36:43;;;;;;;33.97;21.15;;;1.00;99.90;;;;;;4214285;28;20063;-80
2020/12/11 06:38:52;;;;;;;31.05;20.98;;;1.00;99.90;;;;;;4212676;28;20040;-80
2020/12/11 06:40:52;;;;;;;32.28;22.02;;;1.00;99.90;;;;;;4209001;28;20541;-80
2020/12/11 06:42:54;;;;;;;32.95;21.23;;;1.00;99.90;;;;;;4197538;28;20037;-81
2020/12/11 06:45:12;;;;;;;33.05;20.45;;;1.10;99.90;;;;;;4179875;28;20500;-80
2020/12/11 06:47:17;;;;;;;32.42;20.98;;;1.10;99.90;;;;;;4210283;28;20032;-80
2020/12/11 06:49:20;;;;;;;32.25;20.38;;;1.10;99.90;;;;;;4201621;28;20459;-80
2020/12/11 06:51:20;;;;;;;34.50;21.77;;;1.10;99.90;;;;;;4193131;28;20028;-80
2020/12/11 06:53:40;;;;;;;30.90;20.52;;;1.10;99.90;;;;;;4208668;28;20094;-80
2020/12/11 06:55:52;;;;;;;33.15;18.85;;;1.10;99.90;;;;;;4191385;28;20025;-81
2020/12/11 06:57:53;;;;;;;29.33;19.13;;;1.20;99.90;;;;;;4203667;28;20043;-81
2020/12/11 06:59:54;;;;;;;31.23;21.42;;;1.20;99.90;;;;;;4197720;28;20028;-81
2020/12/11 07:02:15;;;;;;;29.95;20.08;;;1.20;99.90;;;;;;4179309;28;20025;-80
2020/12/11 07:04:16;;;;;;;31.08;20.13;;;1.20;99.90;;;;;;4201307;28;20103;-81
2020/12/11 07:06:16;;;;;;;29.92;19.92;;;1.20;99.90;;;;;;4195411;28;20016;-81
2020/12/11 07:08:17;;;;;;;34.70;20.67;;;1.20;99.90;;;;;;4195770;28;20120;-80
2020/12/11 07:10:18;;;;;;;30.08;19.05;;;1.20;99.90;;;;;;4205076;28;20450;-80
2020/12/11 07:12:18;;;;;;;28.95;19.17;;;1.20;99.90;;;;;;4209643;28;20499;-80
2020/12/11 07:14:25;;;;;;;32.65;20.00;;;1.30;99.90;;;;;;4205631;28;20036;-81
2020/12/11 07:16:26;;;;;;;29.95;19.52;;;1.30;99.90;;;;;;4197444;28;20446;-80
2020/12/11 07:18:27;;;;;;;27.77;19.25;;;1.30;99.90;;;;;;4205362;28;20028;-80
2020/12/11 07:20:28;;;;;;;29.38;19.90;;;1.30;99.90;;;;;;4197029;28;20036;-80
2020/12/11 07:22:30;;;;;;;32.88;22.00;;;1.30;99.90;;;;;;4195279;28;20476;-80
2020/12/11 07:24:32;;;;;;;30.35;20.25;;;1.40;99.90;;;;;;4195394;28;20032;-80
2020/12/11 07:26:33;;;;;;;30.42;20.35;;;1.40;99.90;;;;;;4191260;28;20133;-80
2020/12/11 07:28:34;;;;;;;32.28;20.25;;;1.40;99.90;;;;;;4194344;28;20040;-80
2020/12/11 07:30:35;;;;;;;32.55;21.55;;;1.40;99.90;;;;;;4187127;28;20036;-80
2020/12/11 07:32:36;;;;;;;32.42;20.77;;;1.40;99.90;;;;;;4197277;28;20490;-80
2020/12/11 07:34:37;;;;;;;28.48;19.95;;;1.40;99.90;;;;;;4209078;28;20103;-80
2020/12/11 07:36:39;;;;;;;31.20;19.20;;;1.40;99.90;;;;;;4198808;28;20081;-80
2020/12/11 07:38:39;;;;;;;30.90;21.55;;;1.40;99.90;;;;;;4197495;28;20115;-80
2020/12/11 07:40:40;;;;;;;30.17;20.02;;;1.50;99.90;;;;;;4196408;28;20035;-79
2020/12/11 07:42:42;;;;;;;28.65;18.52;;;1.50;99.90;;;;;;4194695;28;20539;-79
2020/12/11 07:44:43;;;;;;;28.30;19.98;;;1.50;99.90;;;;;;4205074;28;20025;-80
2020/12/11 07:46:44;;;;;;;31.27;19.67;;;1.50;99.90;;;;;;4196187;28;20029;-79
2020/12/11 07:48:51;;;;;;;33.20;19.25;;;1.50;99.90;;;;;;4196330;28;20969;-80
2020/12/11 07:51:00;;;;;;;32.17;19.15;;;1.60;99.90;;;;;;4199959;28;20123;-79
2020/12/11 07:53:07;;;;;;;28.83;20.17;;;1.60;99.90;;;;;;4199984;28;20021;-81
2020/12/11 07:55:11;;;;;;;29.15;20.67;;;1.60;99.90;;;;;;4209931;28;20024;-80
2020/12/11 07:57:24;;;;;;;27.23;19.25;;;1.60;99.90;;;;;;4210163;28;20028;-81
2020/12/11 07:59:25;;;;;;;29.13;19.42;;;1.60;99.90;;;;;;4202502;28;20028;-80
2020/12/11 08:01:27;;;;;;;25.52;17.45;;;1.60;99.90;;;;;;4201060;28;20085;-80
2020/12/11 08:03:27;;;;;;;28.67;18.60;;;1.70;99.90;;;;;;4212902;28;20031;-80
2020/12/11 08:05:28;;;;;;;28.50;19.45;;;1.70;99.90;;;;;;4181158;28;20025;-80
2020/12/11 08:07:30;;;;;;;31.50;20.73;;;1.70;99.90;;;;;;4194236;28;20032;-80
2020/12/11 08:09:34;;;;;;;26.90;18.67;;;1.70;99.90;;;;;;4196131;28;20029;-81
2020/12/11 08:11:34;;;;;;;30.20;19.23;;;1.70;99.90;;;;;;4193943;28;20091;-79
2020/12/11 08:13:35;;;;;;;28.33;18.77;;;1.70;99.90;;;;;;4194672;28;20060;-80
2020/12/11 08:15:36;;;;;;;27.65;20.13;;;1.70;99.90;;;;;;4199197;28;20544;-80
2020/12/11 08:17:37;;;;;;;27.40;17.63;;;1.70;99.90;;;;;;4209888;28;20063;-80
2020/12/11 08:19:39;;;;;;;27.50;18.10;;;1.70;99.90;;;;;;4199644;28;20476;-80
2020/12/11 08:21:40;;;;;;;28.98;19.52;;;1.70;99.90;;;;;;4193247;28;20040;-80
2020/12/11 08:23:45;;;;;;;28.45;18.77;;;1.70;99.90;;;;;;4194333;28;20024;-80
2020/12/11 08:25:47;;;;;;;28.92;18.90;;;1.70;99.90;;;;;;4212078;28;20035;-79
2020/12/11 08:27:47;;;;;;;32.08;19.98;;;1.70;99.90;;;;;;4202816;28;20395;-80
2020/12/11 08:30:05;;;;;;;32.05;19.35;;;1.70;99.90;;;;;;4195710;28;20060;-80
2020/12/11 08:32:06;;;;;;;31.55;20.58;;;1.70;99.90;;;;;;4194010;28;20036;-80
2020/12/11 08:34:12;;;;;;;29.95;21.58;;;1.70;99.90;;;;;;4197942;28;20033;-80
2020/12/11 08:36:26;;;;;;;35.88;20.85;;;1.60;99.90;;;;;;4191093;28;20040;-80
2020/12/11 08:38:27;;;;;;;;;;;1.50;99.90;;;;;;4203008;28;20020;-80
2020/12/11 08:40:29;;;;;;;31.58;19.33;;;1.50;99.90;;;;;;4204728;28;19970;-81
2020/12/11 08:42:44;;;;;;;35.13;22.52;;;1.50;99.90;;;;;;4196863;28;20048;-80
2020/12/11 08:45:05;;;;;;;33.38;23.30;;;1.40;99.90;;;;;;4177585;28;20029;-80
2020/12/11 08:49:46;;;;;;;33.40;21.40;;;1.40;99.90;;;;;;4210028;28;20043;-79
2020/12/11 08:51:47;;;;;;;34.30;22.33;;;1.40;99.90;;;;;;4188620;28;20112;-80
2020/12/11 08:53:50;;;;;;;34.45;21.80;;;1.50;99.90;;;;;;4197745;28;20037;-80
2020/12/11 08:55:51;;;;;;;36.13;23.20;;;1.50;99.90;;;;;;4199108;28;20032;-80
2020/12/11 08:57:52;;;;;;;32.40;21.65;;;1.50;99.90;;;;;;4212467;28;20028;-80
2020/12/11 08:59:53;;;;;;;33.90;22.23;;;1.50;99.90;;;;;;4205825;28;20023;-80
2020/12/11 09:01:53;;;;;;;30.65;20.67;;;1.50;99.90;;;;;;4198429;28;20131;-81
2020/12/11 09:03:54;;;;;;;35.45;20.63;;;1.50;99.90;;;;;;4190091;28;20025;-79
2020/12/11 09:05:54;;;;;;;37.00;23.00;;;1.50;99.90;;;;;;4197206;28;20742;-80
2020/12/11 09:07:55;;;;;;;34.20;22.35;;;1.50;99.90;;;;;;4212593;28;20036;-80
2020/12/11 09:09:56;;;;;;;33.60;21.08;;;1.50;99.90;;;;;;4212770;28;20421;-80
2020/12/11 09:11:56;;;;;;;34.05;20.98;;;1.60;99.90;;;;;;4204816;28;20078;-80
2020/12/11 09:13:57;;;;;;;39.63;23.60;;;1.60;99.90;;;;;;4205235;28;20055;-80
2020/12/11 09:15:58;;;;;;;34.42;20.70;;;1.60;99.90;;;;;;4202096;28;20510;-80
2020/12/11 09:17:58;;;;;;;36.58;22.70;;;1.60;99.90;;;;;;4198158;28;20017;-80
2020/12/11 09:20:00;;;;;;;34.80;21.42;;;1.60;99.90;;;;;;4202556;28;20028;-80
2020/12/11 09:22:01;;;;;;;35.00;20.83;;;1.60;99.90;;;;;;4208282;28;20024;-79
2020/12/11 09:24:01;;;;;;;33.88;21.88;;;1.60;99.90;;;;;;4202092;28;20115;-80
2020/12/11 09:26:02;;;;;;;35.45;23.17;;;1.60;99.90;;;;;;4208386;28;20039;-78
2020/12/11 09:28:09;;;;;;;36.58;23.92;;;1.60;99.90;;;;;;4196616;28;20044;-79
2020/12/11 09:30:24;;;;;;;36.15;21.95;;;1.60;99.90;;;;;;4212198;28;20067;-80
2020/12/11 09:32:41;;;;;;;37.25;23.65;;;1.70;99.90;;;;;;4212254;28;20032;-80
2020/12/11 09:34:42;;;;;;;36.13;23.00;;;1.70;99.90;;;;;;4180936;28;20029;-80
2020/12/11 09:36:43;;;;;;;37.13;21.35;;;1.70;99.90;;;;;;4205424;28;20409;-79
2020/12/11 09:38:44;;;;;;;35.75;22.60;;;1.80;99.90;;;;;;4212128;28;20044;-80
2020/12/11 09:40:50;;;;;;;32.30;21.38;;;1.80;99.90;;;;;;4214527;28;20028;-80
2020/12/11 09:45:25;;;;;;;33.90;22.77;;;1.80;99.90;;;;;;4204640;28;20028;-79
2020/12/11 09:49:48;;;;;;;;;;;1.90;99.90;;;;;;4211129;28;20036;-80
2020/12/11 09:52:00;;;;;;;34.65;20.20;;;1.90;99.90;;;;;;4178906;28;19992;-80
2020/12/11 09:54:11;;;;;;;36.92;22.90;;;2.00;99.90;;;;;;4196770;28;20418;-78
2020/12/11 09:56:19;;;;;;;31.95;20.13;;;2.10;99.90;;;;;;4196361;28;20392;-80
2020/12/11 09:58:20;;;;;;;32.70;19.92;;;2.10;99.90;;;;;;4195987;28;20040;-80
2020/12/11 10:00:20;;;;;;;29.23;20.33;;;2.10;99.90;;;;;;4196428;28;20480;-79
2020/12/11 10:04:24;;;;;;;32.63;22.27;;;2.20;99.90;;;;;;4197238;28;20423;-80
2020/12/11 10:06:26;;;;;;;32.65;20.77;;;2.20;99.90;;;;;;4198435;28;20036;-80
2020/12/11 10:08:26;;;;;;;31.40;19.38;;;2.30;99.90;;;;;;4194673;28;20033;-80
2020/12/11 10:10:27;;;;;;;30.25;20.65;;;2.30;99.90;;;;;;4197859;28;20035;-80
2020/12/11 10:12:29;;;;;;;30.08;20.15;;;2.30;99.90;;;;;;4196708;28;20024;-80
2020/12/11 10:16:30;;;;;;;28.48;19.55;;;2.50;99.90;;;;;;4196974;28;20051;-80
2020/12/11 10:18:32;;;;;;;26.55;18.40;;;2.50;99.90;;;;;;4196645;28;20024;-80
2020/12/11 10:20:34;;;;;;;26.20;17.77;;;2.50;99.90;;;;;;4195356;28;20056;-80
2020/12/11 10:22:35;;;;;;;23.83;17.38;;;2.60;99.90;;;;;;4208036;28;20044;-80
2020/12/11 10:24:35;;;;;;;29.73;18.85;;;2.60;99.90;;;;;;4184162;28;20043;-80
2020/12/11 10:26:39;;;;;;;25.38;18.58;;;2.60;99.90;;;;;;4196383;28;20033;-80
2020/12/11 10:28:39;;;;;;;25.55;17.85;;;2.70;99.90;;;;;;4195973;28;20744;-80
2020/12/11 10:30:40;;;;;;;26.85;19.30;;;2.70;99.90;;;;;;4187002;28;20037;-80
2020/12/11 10:32:40;;;;;;;24.95;19.15;;;2.70;99.90;;;;;;4194972;28;20053;-80
2020/12/11 10:34:41;;;;;;;26.02;18.00;;;2.70;99.90;;;;;;4211930;28;20585;-80
2020/12/11 10:36:43;;;;;;;26.30;18.42;;;2.80;99.90;;;;;;4208681;28;20157;-80
2020/12/11 10:38:44;;;;;;;26.95;17.52;;;2.80;99.90;;;;;;4189025;28;20107;-80